McCook, NE

06:43 AM CST del 10 Dicembre 2016 (GMT -0600)
McCook Municipal | | Change Station

Alt. 2579 ft 40.20 °N, 100.59 °W | Updated 1 hour ago

Molto nuvoloso
Molto nuvoloso
19 °F
Sembra 9 °F
N
8
Vento Variabile Vento da Est

Oggi
Massima -- | Minima -- °F
--% Possibilità di precip.
Ieri
Massima -- | Minima -- °F
Precip. -- in
Pressione 30.27 in
Visibilità 10.0 miglia
Nuvole Sereno
Raffreddamento del vento 9 °F
Punto di rugiada 14 °F
Umidità 81%
Piovosità 0.00 in
Spessore del manto nevoso Non disponibile.
7:54 AM 5:16 PM
Gobba a ponente, 83% visible
METAR KMCK 101053Z AUTO 08007KT 10SM CLR M07/M10 A3017 RMK AO2 SLP251 T10721100
Pressione 30.27 in
Visibilità 10.0 miglia
Nuvole Sereno
Raffreddamento del vento 9 °F
Punto di rugiada 14 °F
Umidità 81%
Piovosità 0.00 in
Spessore del manto nevoso Non disponibile.
7:54 AM 5:16 PM
Gobba a ponente, 83% visible
METAR KMCK 101053Z AUTO 08007KT 10SM CLR M07/M10 A3017 RMK AO2 SLP251 T10721100

10-Day Weather Forecast

Almanac

Astronomia

Dec. 10, 2016 Alba Tramonto
Ora attuale
Crepuscolo civile
Crepuscolo nautico
Crepuscolo astronomico
Luna
Estensione della luce visibile
Lunghezza del giorno
Tomorrow will be .
, % of the Moon is Illuminated

Gli estremi di oggi

State Highs State Lows

Community

WunderPhotos

Upload Photos

1,956,540 foto caricate!

WunderBlog® & News

Nearby

Qualità dell'aria

  Qualità dell'aria Indice AQ Inquinante
Not available.

Profondità neve

Stazione Profondità Altitudine

Attività sismica

Città  Distanza Mag. Data & Ora
Minimo Magnitudo Mostrato è 2.5.

Temperature delle acque costiere

Località Temperatura

Stations

Stazioni meteo nelle vicinanze

Ubicazione della stazione Temp. Raffreddamento del vento Punto di rugiada Umidità Vento Precip. Alt. Aggiornato Tipo
                   

Watches & Warnings

There are currently no watches in effect.